Time;durP1;ratioP1;P1;durP2;ratioP2;P2;SDS_P1;SDS_P2;PMS_P1;PMS_P2;Temp;Humidity;BMP_temperature;BMP_pressure;BME280_temperature;BME280_humidity;BME280_pressure;Samples;Min_cycle;Max_cycle;Signal;HPM_P1;HPM_P2
2021/12/18 00:01:18;;;;;;;9.98;5.90;;;10.30;88.90;;;;;;5002255;28;20449;-72
2021/12/18 00:03:45;;;;;;;7.38;6.03;;;10.30;88.80;;;;;;4991767;28;20508;-72
2021/12/18 00:06:11;;;;;;;8.68;6.25;;;10.30;88.80;;;;;;4993014;28;20057;-72
2021/12/18 00:08:38;;;;;;;9.15;6.60;;;10.30;88.80;;;;;;4991191;28;20031;-72
2021/12/18 00:11:04;;;;;;;8.35;5.82;;;10.30;88.90;;;;;;4991533;28;20042;-72
2021/12/18 00:13:30;;;;;;;8.60;6.28;;;10.30;88.90;;;;;;4992910;28;20109;-73
2021/12/18 00:15:56;;;;;;;8.75;5.75;;;10.30;88.90;;;;;;4992066;28;20478;-74
2021/12/18 00:18:21;;;;;;;7.15;5.68;;;10.30;88.90;;;;;;4992246;28;20031;-73
2021/12/18 00:20:48;;;;;;;8.48;6.32;;;10.30;88.90;;;;;;4993037;28;20137;-73
2021/12/18 00:23:14;;;;;;;8.75;6.05;;;10.30;88.90;;;;;;4992627;28;20023;-71
2021/12/18 00:25:40;;;;;;;10.75;6.95;;;10.30;89.00;;;;;;4992823;28;20110;-71
2021/12/18 00:28:06;;;;;;;9.60;6.40;;;10.30;88.90;;;;;;4992256;28;20493;-71
2021/12/18 00:30:33;;;;;;;8.60;6.63;;;10.30;88.90;;;;;;4991969;28;20592;-71
2021/12/18 00:32:59;;;;;;;8.85;7.03;;;10.30;88.90;;;;;;4988672;28;20081;-72
2021/12/18 00:35:25;;;;;;;8.48;6.75;;;10.30;88.80;;;;;;4972866;28;20031;-72
2021/12/18 00:37:51;;;;;;;10.50;6.80;;;10.20;88.90;;;;;;4972223;28;20026;-71
2021/12/18 00:40:24;;;;;;;9.15;6.75;;;10.20;89.00;;;;;;4972936;28;20498;-72
2021/12/18 00:43:38;;;;;;;8.18;6.05;;;10.20;89.10;;;;;;4973077;28;20062;-71
2021/12/18 00:45:36;;;;;;;8.18;6.38;;;10.20;89.20;;;;;;4978004;28;20049;-71
2021/12/18 00:48:02;;;;;;;8.90;6.13;;;10.20;89.20;;;;;;4991012;28;20477;-71
2021/12/18 00:50:31;;;;;;;7.72;6.35;;;10.20;89.20;;;;;;4978621;28;20191;-71
2021/12/18 00:52:57;;;;;;;8.05;6.10;;;10.30;89.20;;;;;;4973241;28;20042;-71
2021/12/18 00:55:23;;;;;;;7.93;5.90;;;10.30;89.20;;;;;;4992011;28;20038;-71
2021/12/18 00:57:50;;;;;;;7.75;5.72;;;10.20;89.20;;;;;;4988310;28;20026;-71
2021/12/18 01:00:22;;;;;;;6.93;5.43;;;10.30;89.20;;;;;;4990324;28;20505;-72
2021/12/18 01:02:53;;;;;;;8.77;6.47;;;10.30;89.20;;;;;;4974422;28;20027;-71
2021/12/18 01:05:19;;;;;;;7.93;6.45;;;10.30;89.10;;;;;;4975299;28;20042;-71
2021/12/18 01:07:45;;;;;;;8.15;6.00;;;10.30;89.00;;;;;;4991548;28;20381;-71
2021/12/18 01:12:55;;;;;;;7.22;4.97;;;10.30;89.00;;;;;;4995806;28;20038;-71
2021/12/18 01:15:28;;;;;;;6.88;4.82;;;10.20;88.90;;;;;;4990845;28;20144;-72
2021/12/18 01:23:23;;;;;;;7.30;5.10;;;10.20;89.00;;;;;;4989885;28;20045;-71
2021/12/18 01:25:50;;;;;;;6.40;4.82;;;10.20;89.10;;;;;;4970415;28;20041;-71
2021/12/18 01:28:17;;;;;;;6.70;5.20;;;10.20;89.10;;;;;;4971503;28;20037;-70
2021/12/18 01:30:43;;;;;;;5.60;5.00;;;10.20;89.10;;;;;;4971465;28;20035;-71
2021/12/18 01:33:09;;;;;;;6.20;5.40;;;10.20;89.10;;;;;;4972300;28;20046;-71
2021/12/18 01:35:35;;;;;;;6.93;5.07;;;10.20;89.00;;;;;;4971736;28;20028;-71
2021/12/18 01:38:01;;;;;;;6.30;4.85;;;10.20;88.90;;;;;;4982680;28;20026;-71
2021/12/18 01:40:27;;;;;;;6.75;4.88;;;10.20;89.00;;;;;;4989965;28;20543;-64
2021/12/18 01:45:42;;;;;;;6.20;4.95;;;10.20;88.90;;;;;;4990228;28;20046;-72
2021/12/18 01:53:37;;;;;;;8.35;5.88;;;10.20;88.90;;;;;;4991448;28;20073;-72
2021/12/18 01:56:03;;;;;;;7.90;6.05;;;10.20;88.90;;;;;;4990888;28;20066;-72
2021/12/18 01:58:29;;;;;;;8.73;5.47;;;10.20;88.90;;;;;;4990513;28;20026;-72
2021/12/18 02:00:56;;;;;;;7.88;6.03;;;10.20;88.90;;;;;;4990162;28;20033;-72
2021/12/18 02:03:22;;;;;;;7.05;5.65;;;10.20;88.90;;;;;;4990853;28;20025;-71
2021/12/18 02:05:50;;;;;;;6.63;5.22;;;10.20;88.90;;;;;;4990833;28;20036;-72
2021/12/18 02:08:23;;;;;;;6.90;5.10;;;10.20;88.90;;;;;;4982055;28;20030;-71
2021/12/18 02:10:58;;;;;;;7.38;5.95;;;10.20;88.90;;;;;;4974497;28;20038;-72
2021/12/18 02:21:45;;;;;;;8.70;5.88;;;10.20;88.80;;;;;;4990897;28;20061;-72
2021/12/18 02:24:12;;;;;;;7.05;5.38;;;10.20;88.80;;;;;;4976036;28;20084;-72
2021/12/18 02:26:37;;;;;;;7.28;5.68;;;10.20;88.80;;;;;;4973929;28;20358;-72
2021/12/18 02:29:05;;;;;;;6.65;5.50;;;10.20;88.90;;;;;;4990745;28;20038;-72
2021/12/18 02:31:31;;;;;;;6.93;5.35;;;10.20;88.90;;;;;;4990135;28;20181;-72
2021/12/18 02:33:58;;;;;;;7.45;5.38;;;10.10;88.80;;;;;;4990335;28;20508;-72
2021/12/18 02:36:25;;;;;;;6.72;5.63;;;10.20;88.90;;;;;;4990048;28;20101;-73
2021/12/18 02:41:35;;;;;;;6.65;5.43;;;10.10;88.80;;;;;;4990079;28;20512;-73
2021/12/18 02:44:02;;;;;;;;;;;10.10;88.90;;;;;;4990709;28;20109;-73
2021/12/18 02:46:27;;;;;;;6.78;5.63;;;10.10;88.70;;;;;;4986900;28;19921;-73
2021/12/18 02:48:55;;;;;;;9.48;5.57;;;10.10;88.70;;;;;;4990013;28;20402;-73
2021/12/18 02:51:22;;;;;;;9.00;6.00;;;10.10;88.90;;;;;;4989854;28;20084;-73
2021/12/18 02:53:50;;;;;;;9.10;6.22;;;10.10;88.80;;;;;;4990181;28;20054;-73
2021/12/18 02:56:19;;;;;;;8.20;5.97;;;10.10;88.80;;;;;;4989809;28;20080;-73
2021/12/18 02:58:47;;;;;;;8.68;6.63;;;10.10;88.80;;;;;;4989653;28;20060;-73
2021/12/18 03:01:18;;;;;;;11.00;6.90;;;10.10;88.80;;;;;;4989639;28;20369;-72
2021/12/18 03:03:45;;;;;;;9.10;6.47;;;10.10;88.80;;;;;;4990197;28;20026;-72
2021/12/18 03:06:35;;;;;;;8.25;6.10;;;10.10;88.70;;;;;;4990251;28;20031;-66
2021/12/18 03:25:28;;;;;;;6.95;4.97;;;10.00;88.60;;;;;;4973088;28;20026;-66
2021/12/18 03:27:55;;;;;;;6.38;5.32;;;10.00;88.70;;;;;;4989389;28;20071;-66
2021/12/18 03:30:21;;;;;;;7.65;5.75;;;10.00;88.70;;;;;;4989152;28;20493;-71
2021/12/18 03:32:48;;;;;;;7.07;5.35;;;10.00;88.70;;;;;;4989460;28;20390;-71
2021/12/18 03:35:15;;;;;;;7.80;5.50;;;10.00;88.70;;;;;;4980720;28;20061;-66
2021/12/18 03:37:41;;;;;;;7.03;5.20;;;10.10;88.70;;;;;;4978216;28;20173;-65
2021/12/18 03:40:11;;;;;;;8.68;5.72;;;10.00;88.70;;;;;;4988156;28;20026;-72
2021/12/18 03:42:37;;;;;;;6.47;4.70;;;10.00;88.60;;;;;;4986197;28;20018;-72
2021/12/18 03:45:05;;;;;;;6.28;5.28;;;10.00;88.60;;;;;;4981265;28;20512;-71
2021/12/18 03:47:30;;;;;;;7.47;5.50;;;10.00;88.60;;;;;;4969037;28;20041;-66
2021/12/18 03:49:56;;;;;;;6.15;4.45;;;10.00;88.80;;;;;;4976131;28;20034;-66
2021/12/18 03:52:22;;;;;;;6.43;4.50;;;10.00;88.60;;;;;;4988969;28;20038;-66
2021/12/18 03:54:48;;;;;;;6.00;4.50;;;10.00;88.50;;;;;;4990004;28;20538;-72
2021/12/18 03:57:13;;;;;;;7.85;4.68;;;10.00;88.60;;;;;;4989934;28;20110;-73
2021/12/18 03:59:39;;;;;;;6.68;4.60;;;10.00;88.60;;;;;;4989166;28;20124;-73
2021/12/18 04:02:05;;;;;;;9.30;5.00;;;10.00;88.60;;;;;;4991120;28;20042;-74
2021/12/18 04:04:31;;;;;;;6.38;4.85;;;10.00;88.50;;;;;;4990512;28;20109;-71
2021/12/18 04:06:57;;;;;;;5.85;4.75;;;10.00;88.50;;;;;;4988536;28;20137;-73
2021/12/18 04:09:22;;;;;;;6.50;4.68;;;10.00;88.50;;;;;;4992065;28;20030;-71
2021/12/18 04:11:48;;;;;;;6.70;5.13;;;10.00;88.50;;;;;;4992029;28;20031;-71
2021/12/18 04:14:17;;;;;;;8.30;5.05;;;10.00;88.50;;;;;;4975287;28;20829;-65
2021/12/18 04:16:44;;;;;;;6.95;4.63;;;10.00;88.50;;;;;;4991694;28;20043;-65
2021/12/18 04:19:09;;;;;;;7.05;5.22;;;10.00;88.50;;;;;;4992696;28;20035;-65
2021/12/18 04:21:35;;;;;;;6.57;4.65;;;10.00;88.50;;;;;;4992867;28;20398;-71
2021/12/18 04:24:03;;;;;;;6.30;4.47;;;10.00;88.50;;;;;;4992608;28;20477;-72
2021/12/18 04:26:30;;;;;;;5.95;4.47;;;9.90;88.50;;;;;;4991845;28;20573;-72
2021/12/18 04:28:56;;;;;;;5.75;4.05;;;9.90;89.00;;;;;;4992323;28;20042;-72
2021/12/18 04:31:21;;;;;;;4.97;3.97;;;9.90;88.50;;;;;;4990835;28;20031;-72
2021/12/18 04:33:47;;;;;;;7.22;4.30;;;9.90;88.60;;;;;;4989676;28;20030;-65
2021/12/18 04:36:13;;;;;;;6.15;4.50;;;9.90;88.70;;;;;;4991020;28;20031;-71
2021/12/18 04:38:39;;;;;;;6.70;4.38;;;9.90;88.70;;;;;;4990641;28;20486;-71
2021/12/18 04:41:05;;;;;;;6.80;4.93;;;9.90;88.70;;;;;;4991592;28;20492;-71
2021/12/18 04:43:31;;;;;;;7.05;4.20;;;9.90;88.70;;;;;;4991309;28;20034;-72
2021/12/18 04:45:57;;;;;;;7.38;3.92;;;9.90;88.60;;;;;;4987042;28;20118;-71
2021/12/18 04:48:22;;;;;;;6.57;4.45;;;9.90;88.70;;;;;;4984549;28;20026;-72
2021/12/18 04:50:48;;;;;;;5.55;4.13;;;9.90;88.70;;;;;;4981118;28;20042;-73
2021/12/18 04:53:14;;;;;;;6.47;4.40;;;9.90;88.70;;;;;;4991566;28;20134;-73
2021/12/18 04:55:40;;;;;;;6.68;4.78;;;9.90;88.70;;;;;;4990894;28;20038;-72
2021/12/18 04:58:05;;;;;;;6.07;4.55;;;9.90;88.70;;;;;;4974315;28;20587;-71
2021/12/18 05:00:39;;;;;;;6.65;4.90;;;9.90;88.80;;;;;;4982579;28;20079;-65
2021/12/18 05:03:08;;;;;;;6.80;4.25;;;9.80;88.60;;;;;;4972663;28;20026;-65
2021/12/18 05:05:34;;;;;;;7.15;4.35;;;9.90;88.80;;;;;;4983029;28;20034;-65
2021/12/18 05:08:02;;;;;;;6.43;4.38;;;9.80;88.70;;;;;;4991070;28;20138;-65
2021/12/18 05:10:27;;;;;;;6.15;4.50;;;9.80;88.70;;;;;;4991213;28;20520;-64
2021/12/18 05:12:53;;;;;;;6.47;4.38;;;9.90;88.80;;;;;;4990563;28;20058;-64
2021/12/18 05:15:19;;;;;;;9.02;4.50;;;9.90;88.80;;;;;;4990968;28;20111;-65
2021/12/18 05:17:44;;;;;;;6.95;4.45;;;9.90;88.80;;;;;;4979894;28;20058;-65
2021/12/18 05:20:11;;;;;;;11.40;4.97;;;9.90;88.80;;;;;;4971241;28;20035;-64
2021/12/18 05:22:37;;;;;;;9.40;4.70;;;9.90;88.70;;;;;;4972164;28;20027;-64
2021/12/18 05:25:04;;;;;;;7.90;4.72;;;9.90;88.70;;;;;;4971884;28;20061;-64
2021/12/18 05:27:30;;;;;;;7.10;4.20;;;9.90;88.80;;;;;;4971276;28;20027;-64
2021/12/18 05:29:56;;;;;;;16.85;4.25;;;9.80;88.60;;;;;;4970744;28;20037;-64
2021/12/18 05:32:22;;;;;;;5.93;4.07;;;9.90;88.70;;;;;;4978667;28;20030;-65
2021/12/18 05:34:47;;;;;;;13.30;4.10;;;9.80;88.70;;;;;;4991381;28;20326;-65
2021/12/18 05:37:18;;;;;;;6.22;3.60;;;9.80;88.80;;;;;;4980443;28;20030;-64
2021/12/18 05:39:45;;;;;;;6.95;3.10;;;9.80;88.70;;;;;;4971587;28;20027;-66
2021/12/18 05:42:11;;;;;;;3.88;3.10;;;9.80;88.70;;;;;;4971793;28;20027;-65
2021/12/18 05:44:36;;;;;;;6.95;3.17;;;9.80;88.50;;;;;;4980665;28;20030;-65
2021/12/18 05:47:03;;;;;;;5.28;2.20;;;9.70;88.50;;;;;;4981930;28;20096;-66
2021/12/18 05:49:29;;;;;;;5.25;2.30;;;9.70;88.30;;;;;;4990455;28;20030;-65
2021/12/18 05:51:55;;;;;;;4.97;2.78;;;9.70;88.40;;;;;;4989406;28;20041;-65
2021/12/18 05:54:20;;;;;;;6.03;2.65;;;9.70;88.40;;;;;;4971243;28;20027;-65
2021/12/18 05:56:46;;;;;;;7.10;2.80;;;9.60;88.30;;;;;;4971127;28;20058;-65
2021/12/18 05:59:12;;;;;;;4.60;2.53;;;9.60;88.30;;;;;;4978100;28;20477;-65
2021/12/18 06:01:37;;;;;;;4.05;2.70;;;9.70;88.40;;;;;;4981587;28;20065;-65
2021/12/18 06:04:03;;;;;;;5.78;2.70;;;9.70;88.40;;;;;;4985153;28;20027;-65
2021/12/18 06:06:30;;;;;;;4.05;2.55;;;9.70;88.40;;;;;;4976352;28;20329;-65
2021/12/18 06:08:56;;;;;;;5.85;2.55;;;9.70;88.30;;;;;;4990210;28;20400;-65
2021/12/18 06:11:26;;;;;;;4.88;2.53;;;9.60;88.10;;;;;;4981593;28;20102;-65
2021/12/18 06:13:52;;;;;;;4.15;2.53;;;9.60;88.20;;;;;;4971255;28;20038;-65
2021/12/18 06:16:19;;;;;;;4.50;2.30;;;9.60;88.20;;;;;;4968734;28;20051;-65
2021/12/18 06:18:47;;;;;;;3.00;2.30;;;9.60;88.20;;;;;;4971430;28;20043;-66
2021/12/18 06:21:14;;;;;;;5.47;1.90;;;9.60;88.20;;;;;;4985589;28;20034;-65
2021/12/18 06:23:42;;;;;;;4.97;2.00;;;9.60;88.20;;;;;;4982752;28;20394;-65
2021/12/18 06:26:08;;;;;;;3.72;2.05;;;9.60;88.10;;;;;;4981798;28;20414;-65
2021/12/18 06:28:33;;;;;;;4.15;1.98;;;9.60;88.20;;;;;;4990001;28;20030;-65
2021/12/18 06:31:00;;;;;;;2.83;2.03;;;9.60;88.20;;;;;;4981331;28;20476;-65
2021/12/18 06:33:26;;;;;;;2.75;2.13;;;9.60;88.20;;;;;;4981105;28;20046;-65
2021/12/18 06:35:52;;;;;;;4.90;1.75;;;9.60;88.20;;;;;;4976973;28;20501;-65
2021/12/18 06:38:18;;;;;;;2.25;1.63;;;9.60;88.10;;;;;;4973555;28;20406;-65
2021/12/18 06:40:43;;;;;;;1.40;1.20;;;9.60;88.10;;;;;;4980937;28;20035;-65
2021/12/18 06:43:09;;;;;;;1.30;1.20;;;9.60;87.90;;;;;;4987993;28;20464;-65
2021/12/18 06:45:35;;;;;;;1.65;1.13;;;9.60;87.70;;;;;;4963398;28;20042;-65
2021/12/18 06:48:01;;;;;;;1.20;0.95;;;9.60;87.70;;;;;;4974916;28;20042;-66
2021/12/18 06:50:27;;;;;;;1.55;1.20;;;9.60;87.80;;;;;;4977860;28;20031;-65
2021/12/18 06:52:53;;;;;;;1.65;1.20;;;9.60;87.80;;;;;;4985837;28;20038;-65
2021/12/18 06:55:19;;;;;;;1.75;1.20;;;9.50;87.70;;;;;;4970435;28;20031;-65
2021/12/18 06:57:45;;;;;;;1.35;1.25;;;9.50;87.70;;;;;;4987800;28;20089;-66
2021/12/18 07:00:13;;;;;;;1.65;1.20;;;9.50;87.70;;;;;;4981077;28;20054;-65
2021/12/18 07:02:40;;;;;;;1.95;1.30;;;9.50;87.60;;;;;;4981365;28;20609;-72
2021/12/18 07:05:07;;;;;;;1.10;1.00;;;9.50;87.60;;;;;;4984622;28;20069;-72
2021/12/18 07:07:33;;;;;;;1.50;1.30;;;9.50;87.50;;;;;;4969918;28;20122;-72
2021/12/18 07:09:59;;;;;;;1.48;1.17;;;9.40;87.30;;;;;;4985824;28;20249;-72
2021/12/18 07:12:24;;;;;;;1.13;1.02;;;9.40;87.60;;;;;;4984562;28;20034;-72
2021/12/18 07:14:50;;;;;;;1.48;1.33;;;9.40;87.20;;;;;;4977767;28;20435;-71
2021/12/18 07:17:16;;;;;;;1.27;1.15;;;9.40;87.20;;;;;;4974543;28;20093;-72
2021/12/18 07:19:41;;;;;;;2.03;1.30;;;9.40;87.20;;;;;;4980617;28;20019;-71
2021/12/18 07:22:07;;;;;;;1.40;1.20;;;9.40;87.20;;;;;;4977752;28;20126;-72
2021/12/18 07:24:33;;;;;;;1.20;1.10;;;9.40;87.20;;;;;;4985089;28;20062;-71
2021/12/18 07:26:59;;;;;;;1.30;1.10;;;9.40;87.20;;;;;;4984931;28;20373;-72
2021/12/18 07:29:24;;;;;;;1.42;1.23;;;9.40;87.10;;;;;;4976165;28;20034;-72
2021/12/18 07:31:51;;;;;;;1.60;1.45;;;9.30;87.00;;;;;;4972556;28;20043;-65
2021/12/18 07:34:17;;;;;;;1.30;1.20;;;9.40;87.10;;;;;;4988909;28;20382;-65
2021/12/18 07:36:43;;;;;;;1.80;1.30;;;9.40;87.10;;;;;;4972621;28;20425;-65
2021/12/18 07:39:12;;;;;;;1.17;1.08;;;9.30;86.90;;;;;;4995787;28;20026;-65
2021/12/18 07:41:38;;;;;;;1.60;1.27;;;9.30;86.90;;;;;;4981449;28;20030;-65
2021/12/18 07:44:06;;;;;;;1.38;1.27;;;9.30;86.90;;;;;;4980806;28;20406;-66
2021/12/18 07:46:36;;;;;;;1.27;1.17;;;9.30;86.90;;;;;;4979567;28;20065;-71
2021/12/18 07:49:03;;;;;;;1.63;1.30;;;9.30;86.90;;;;;;4984716;28;20470;-72
2021/12/18 07:51:29;;;;;;;1.83;1.38;;;9.30;87.00;;;;;;4982679;28;20464;-72
2021/12/18 07:53:55;;;;;;;1.60;1.50;;;9.40;87.00;;;;;;4979275;28;20038;-72
2021/12/18 07:56:21;;;;;;;1.92;1.45;;;9.30;87.00;;;;;;4982034;28;20046;-71
2021/12/18 07:58:47;;;;;;;1.25;1.13;;;9.40;87.00;;;;;;4973942;28;20031;-71
2021/12/18 08:01:12;;;;;;;1.52;1.40;;;9.30;86.90;;;;;;4988871;28;20666;-68
2021/12/18 08:03:38;;;;;;;1.40;1.30;;;9.30;87.50;;;;;;4981678;28;20121;-69
2021/12/18 08:06:04;;;;;;;1.90;1.30;;;9.30;86.90;;;;;;4977451;28;20816;-69
2021/12/18 08:08:30;;;;;;;1.65;1.55;;;9.30;86.90;;;;;;4975337;28;20050;-69
2021/12/18 08:10:56;;;;;;;1.48;1.38;;;9.30;87.00;;;;;;4989652;28;20030;-70
2021/12/18 08:13:21;;;;;;;1.65;1.42;;;9.30;87.00;;;;;;4987189;28;20109;-70
2021/12/18 08:15:47;;;;;;;1.50;1.38;;;9.30;87.00;;;;;;4981759;28;20189;-70
2021/12/18 08:18:13;;;;;;;1.85;1.40;;;9.30;87.00;;;;;;4987588;28;20034;-70
2021/12/18 08:20:39;;;;;;;1.77;1.42;;;9.30;87.00;;;;;;4998897;28;20500;-70
2021/12/18 08:23:06;;;;;;;1.45;1.35;;;9.30;87.00;;;;;;4988584;28;20457;-70
2021/12/18 08:25:33;;;;;;;1.30;1.20;;;9.30;87.00;;;;;;4980941;28;20031;-70
2021/12/18 08:28:00;;;;;;;1.38;1.10;;;9.30;87.00;;;;;;4981591;28;20038;-70
2021/12/18 08:30:27;;;;;;;1.35;1.25;;;9.30;86.90;;;;;;4984480;28;20053;-70
2021/12/18 08:32:53;;;;;;;1.67;1.30;;;9.20;86.90;;;;;;4975965;28;20062;-70
2021/12/18 08:35:19;;;;;;;1.52;1.30;;;9.30;87.00;;;;;;4984109;28;20033;-70
2021/12/18 08:37:45;;;;;;;1.70;1.15;;;9.20;86.90;;;;;;4986247;28;20085;-70
2021/12/18 08:40:11;;;;;;;3.20;1.27;;;9.30;87.00;;;;;;4985267;28;20026;-70
2021/12/18 08:42:37;;;;;;;1.00;0.90;;;9.20;86.90;;;;;;4986688;28;20064;-70
2021/12/18 08:45:04;;;;;;;3.65;1.20;;;9.20;87.00;;;;;;4987833;28;20069;-70
2021/12/18 08:47:30;;;;;;;6.13;1.20;;;9.20;87.00;;;;;;4990274;28;20107;-70
2021/12/18 08:49:55;;;;;;;1.35;1.15;;;9.20;87.10;;;;;;4988450;28;20046;-70
2021/12/18 08:52:21;;;;;;;3.08;1.17;;;9.20;87.00;;;;;;4990775;28;20128;-70
2021/12/18 08:54:47;;;;;;;1.33;1.15;;;9.20;86.90;;;;;;4988023;28;20077;-69
2021/12/18 08:57:13;;;;;;;1.42;1.33;;;9.20;86.90;;;;;;4977774;28;20548;-71
2021/12/18 08:59:39;;;;;;;1.17;1.00;;;9.20;86.80;;;;;;4981748;28;20022;-70
2021/12/18 09:02:09;;;;;;;2.85;1.20;;;9.20;86.80;;;;;;4984825;28;20489;-70
2021/12/18 09:04:36;;;;;;;1.45;1.27;;;9.20;86.80;;;;;;4986940;28;20465;-70
2021/12/18 09:07:02;;;;;;;2.33;1.30;;;9.20;86.80;;;;;;4985578;28;20019;-70
2021/12/18 09:09:27;;;;;;;1.30;1.20;;;9.20;86.80;;;;;;4982603;28;20070;-69
2021/12/18 09:11:53;;;;;;;1.40;1.00;;;9.20;86.80;;;;;;4980986;28;20042;-70
2021/12/18 09:14:19;;;;;;;1.50;1.40;;;9.20;86.70;;;;;;4982621;28;20026;-70
2021/12/18 09:16:45;;;;;;;1.25;1.15;;;9.20;86.80;;;;;;4982677;28;20140;-70
2021/12/18 09:19:11;;;;;;;1.13;1.02;;;9.20;86.70;;;;;;4994990;28;20034;-70
2021/12/18 09:21:36;;;;;;;1.38;1.20;;;9.20;86.60;;;;;;4987527;28;20116;-70
2021/12/18 09:24:03;;;;;;;1.65;1.40;;;9.30;86.40;;;;;;4989174;28;20019;-70
2021/12/18 09:26:29;;;;;;;1.63;1.38;;;9.20;86.10;;;;;;4982803;28;20433;-70
2021/12/18 09:28:54;;;;;;;1.55;1.02;;;9.20;86.10;;;;;;4984040;28;20053;-70
2021/12/18 09:31:20;;;;;;;3.00;1.08;;;9.20;86.10;;;;;;4990519;28;20057;-66
2021/12/18 09:33:46;;;;;;;1.45;1.00;;;9.20;86.20;;;;;;4986716;28;20080;-66
2021/12/18 09:36:12;;;;;;;0.95;0.88;;;9.20;86.40;;;;;;4986496;28;20038;-66
2021/12/18 09:38:38;;;;;;;0.77;0.75;;;9.30;86.40;;;;;;4982560;28;20026;-66
2021/12/18 09:41:06;;;;;;;1.08;0.98;;;9.30;86.50;;;;;;4968715;28;20030;-66
2021/12/18 09:43:32;;;;;;;0.80;0.80;;;9.30;86.50;;;;;;4982988;28;20098;-66
2021/12/18 09:46:02;;;;;;;2.47;0.95;;;9.20;86.30;;;;;;4980752;28;21814;-65
2021/12/18 09:48:28;;;;;;;2.72;2.38;;;9.20;86.20;;;;;;4992970;28;20392;-65
2021/12/18 09:50:57;;;;;;;2.38;2.17;;;9.20;86.10;;;;;;4991127;28;20088;-65
2021/12/18 09:53:23;;;;;;;1.30;1.20;;;9.20;86.00;;;;;;4986929;28;20037;-66
2021/12/18 09:55:48;;;;;;;1.38;1.27;;;9.20;86.00;;;;;;4981917;28;20039;-66
2021/12/18 09:58:14;;;;;;;4.53;3.05;;;9.20;85.80;;;;;;4986430;28;20583;-65
2021/12/18 10:00:40;;;;;;;1.95;1.70;;;9.10;85.80;;;;;;4980516;28;20025;-66
2021/12/18 10:03:07;;;;;;;1.60;1.50;;;9.10;85.80;;;;;;4987209;28;20512;-65
2021/12/18 10:05:35;;;;;;;1.20;1.10;;;9.10;86.00;;;;;;4986761;28;20465;-65
2021/12/18 10:08:21;;;;;;;1.63;1.20;;;9.10;86.10;;;;;;4988895;28;20497;-64
2021/12/18 10:11:09;;;;;;;1.20;1.00;;;9.20;86.30;;;;;;4983764;28;20045;-70
2021/12/18 10:14:02;;;;;;;1.10;1.00;;;9.20;86.30;;;;;;4988777;28;20037;-69
2021/12/18 10:16:29;;;;;;;1.02;0.93;;;9.30;86.20;;;;;;4986940;28;20106;-69
2021/12/18 10:18:56;;;;;;;1.00;0.90;;;9.30;86.00;;;;;;4985820;28;20549;-69
2021/12/18 10:21:26;;;;;;;1.50;1.20;;;9.30;85.80;;;;;;4988211;28;20027;-68
2021/12/18 10:23:53;;;;;;;2.85;1.33;;;9.20;85.50;;;;;;4988521;28;20026;-69
2021/12/18 10:26:37;;;;;;;1.92;1.50;;;9.20;85.40;;;;;;4986364;28;20118;-70
2021/12/18 10:29:06;;;;;;;1.85;1.30;;;9.20;85.40;;;;;;4985281;28;20442;-69
2021/12/18 10:31:45;;;;;;;1.42;1.27;;;9.20;85.40;;;;;;4987737;28;20027;-71
2021/12/18 10:34:26;;;;;;;1.65;1.40;;;9.20;85.40;;;;;;4988491;28;20030;-70
2021/12/18 10:37:19;;;;;;;2.15;1.08;;;9.20;85.40;;;;;;4988613;28;20026;-70
2021/12/18 10:39:53;;;;;;;2.78;2.53;;;9.20;85.50;;;;;;4982569;28;20382;-69
2021/12/18 10:42:35;;;;;;;1.85;1.60;;;9.10;85.30;;;;;;4986953;28;20027;-71
2021/12/18 10:45:09;;;;;;;1.52;1.33;;;9.10;85.40;;;;;;4987626;28;20033;-70
2021/12/18 10:47:53;;;;;;;1.48;1.38;;;9.00;85.40;;;;;;4973095;28;20478;-70
2021/12/18 10:50:31;;;;;;;1.48;1.38;;;9.10;85.50;;;;;;4988609;28;20037;-69
2021/12/18 10:53:11;;;;;;;2.22;1.50;;;9.10;85.20;;;;;;4987266;28;20041;-69
2021/12/18 10:55:37;;;;;;;2.80;1.02;;;9.10;85.40;;;;;;4988867;28;20374;-70
2021/12/18 10:58:05;;;;;;;0.93;0.82;;;9.10;85.30;;;;;;4984554;28;20042;-70
2021/12/18 11:00:49;;;;;;;0.80;0.77;;;9.10;85.40;;;;;;4973998;28;20496;-70
2021/12/18 11:03:38;;;;;;;0.95;0.77;;;9.10;85.50;;;;;;4987210;28;20105;-71
2021/12/18 11:06:31;;;;;;;1.20;0.90;;;9.10;85.50;;;;;;4982910;28;20030;-69
2021/12/18 11:09:10;;;;;;;1.65;0.70;;;9.20;85.60;;;;;;4987370;28;20451;-70
2021/12/18 11:14:24;;;;;;;1.27;1.02;;;9.30;85.50;;;;;;4987738;28;20043;-70
2021/12/18 11:16:55;;;;;;;1.00;0.90;;;9.30;85.60;;;;;;4999050;28;20069;-70
2021/12/18 11:19:27;;;;;;;1.40;1.30;;;9.40;85.60;;;;;;4987416;28;20496;-70
2021/12/18 11:22:03;;;;;;;1.48;1.00;;;9.40;85.50;;;;;;4990511;28;20458;-70
2021/12/18 11:24:43;;;;;;;1.67;1.10;;;9.40;85.10;;;;;;4989034;28;20037;-70
2021/12/18 11:27:18;;;;;;;1.02;0.93;;;9.30;85.10;;;;;;4988741;28;20117;-70
2021/12/18 11:29:47;;;;;;;1.58;1.20;;;9.40;85.30;;;;;;4989128;28;20397;-70
2021/12/18 11:32:15;;;;;;;1.35;1.25;;;9.40;85.40;;;;;;4986832;28;20026;-70
2021/12/18 11:34:41;;;;;;;1.98;1.20;;;9.40;85.40;;;;;;4990418;28;20033;-69
2021/12/18 11:37:11;;;;;;;1.52;1.42;;;9.40;85.40;;;;;;4989997;28;20469;-72
2021/12/18 11:39:39;;;;;;;2.90;1.40;;;9.40;85.20;;;;;;4991042;28;20019;-72
2021/12/18 11:42:06;;;;;;;1.70;1.40;;;9.40;85.10;;;;;;4990795;28;20436;-68
2021/12/18 11:44:33;;;;;;;1.60;1.48;;;9.40;85.10;;;;;;4990224;28;20030;-68
2021/12/18 11:47:18;;;;;;;1.40;1.30;;;9.40;84.90;;;;;;4985635;28;20042;-68
2021/12/18 11:49:44;;;;;;;2.00;1.55;;;9.40;85.10;;;;;;4986849;28;20034;-68
2021/12/18 11:52:10;;;;;;;1.50;1.27;;;9.40;85.10;;;;;;4989364;28;20097;-68
2021/12/18 11:54:56;;;;;;;1.65;1.55;;;9.40;85.20;;;;;;4987346;28;20084;-68
2021/12/18 11:57:41;;;;;;;1.55;1.42;;;9.30;85.40;;;;;;4979200;28;20018;-68
2021/12/18 12:00:34;;;;;;;1.92;1.60;;;9.30;85.50;;;;;;4981465;28;20030;-68
2021/12/18 12:03:02;;;;;;;1.90;1.70;;;9.40;85.60;;;;;;4983425;28;20037;-68
2021/12/18 12:05:34;;;;;;;1.55;1.40;;;9.30;85.50;;;;;;4988301;28;20092;-69
2021/12/18 12:08:18;;;;;;;;;;;9.30;85.80;;;;;;4991948;28;20030;-68
2021/12/18 12:11:23;;;;;;;0.88;0.80;;;9.40;85.80;;;;;;4988855;28;20384;-69
2021/12/18 12:14:03;;;;;;;1.08;0.73;;;9.40;86.00;;;;;;4949008;28;20031;-68
2021/12/18 12:16:46;;;;;;;1.30;0.90;;;9.40;86.10;;;;;;4980444;28;20054;-69
2021/12/18 12:19:24;;;;;;;0.90;0.85;;;9.40;86.20;;;;;;4983936;28;20489;-68
2021/12/18 12:21:54;;;;;;;1.20;1.10;;;9.50;86.20;;;;;;4987305;28;20053;-68
2021/12/18 12:24:26;;;;;;;1.15;0.80;;;9.50;86.20;;;;;;4985862;28;20027;-69
2021/12/18 12:26:53;;;;;;;0.85;0.85;;;9.50;86.20;;;;;;4986206;28;20026;-68
2021/12/18 12:29:20;;;;;;;1.35;1.00;;;9.50;86.00;;;;;;4989984;28;20502;-68
2021/12/18 12:31:58;;;;;;;0.80;0.70;;;9.50;86.10;;;;;;4983556;28;20035;-69
2021/12/18 12:34:27;;;;;;;0.65;0.60;;;9.50;86.10;;;;;;4980561;28;20161;-68
2021/12/18 12:36:58;;;;;;;0.77;0.60;;;9.60;85.80;;;;;;4986131;28;20026;-68
2021/12/18 12:39:25;;;;;;;0.77;0.60;;;9.60;85.60;;;;;;4960089;28;20505;-68
2021/12/18 12:41:52;;;;;;;0.90;0.60;;;9.70;85.70;;;;;;4979314;28;20023;-69
2021/12/18 12:44:32;;;;;;;0.80;0.50;;;9.70;85.70;;;;;;4990178;28;20049;-68
2021/12/18 12:47:27;;;;;;;0.50;0.50;;;9.70;85.90;;;;;;4979981;28;20046;-68
2021/12/18 12:49:58;;;;;;;0.40;0.40;;;9.70;85.90;;;;;;4977836;28;20074;-68
2021/12/18 12:52:26;;;;;;;1.35;0.68;;;9.70;85.90;;;;;;4982334;28;20030;-68
2021/12/18 12:55:04;;;;;;;0.70;0.63;;;9.70;86.00;;;;;;4983897;28;20208;-68
2021/12/18 12:57:39;;;;;;;0.73;0.60;;;9.70;86.20;;;;;;4985769;28;20034;-68
2021/12/18 13:00:08;;;;;;;0.60;0.50;;;9.80;86.20;;;;;;4975613;28;20039;-68
2021/12/18 13:02:55;;;;;;;0.68;0.52;;;9.80;86.40;;;;;;4979279;28;20113;-68
2021/12/18 13:05:23;;;;;;;0.70;0.50;;;9.80;86.30;;;;;;4984276;28;20371;-69
2021/12/18 13:07:54;;;;;;;0.50;0.50;;;9.80;86.10;;;;;;4975545;28;20034;-69
2021/12/18 13:10:24;;;;;;;1.08;0.50;;;9.80;86.30;;;;;;4988279;28;20399;-69
2021/12/18 13:12:54;;;;;;;0.50;0.50;;;9.80;87.00;;;;;;4990472;28;20022;-70
2021/12/18 13:15:20;;;;;;;0.50;0.50;;;9.80;86.10;;;;;;4988332;28;20051;-69
2021/12/18 13:17:46;;;;;;;0.70;0.65;;;9.90;86.30;;;;;;4984909;28;20041;-70
2021/12/18 13:20:12;;;;;;;0.57;0.57;;;9.90;86.40;;;;;;4983655;28;20421;-69
2021/12/18 13:22:38;;;;;;;1.05;0.60;;;9.90;86.40;;;;;;4989150;28;20397;-69
2021/12/18 13:25:07;;;;;;;0.50;0.50;;;9.90;86.30;;;;;;4972396;28;20038;-69
2021/12/18 13:27:35;;;;;;;0.70;0.55;;;9.90;86.40;;;;;;4990146;28;20034;-70
2021/12/18 13:30:21;;;;;;;1.00;0.60;;;9.90;86.40;;;;;;4987948;28;20500;-70
2021/12/18 13:32:51;;;;;;;0.68;0.60;;;9.90;86.10;;;;;;4984823;28;20030;-70
2021/12/18 13:35:17;;;;;;;0.63;0.63;;;9.90;86.30;;;;;;4989306;28;20026;-70
2021/12/18 13:38:12;;;;;;;0.52;0.52;;;9.80;86.40;;;;;;4985983;28;20039;-70
2021/12/18 13:40:47;;;;;;;0.63;0.63;;;9.80;86.60;;;;;;4985566;28;20027;-70
2021/12/18 13:43:24;;;;;;;0.90;0.80;;;9.70;86.60;;;;;;4988207;28;20018;-70
2021/12/18 13:46:06;;;;;;;1.25;0.80;;;9.70;86.80;;;;;;4988243;28;20023;-70
2021/12/18 13:48:37;;;;;;;1.15;1.00;;;9.70;86.80;;;;;;4985245;28;20113;-70
2021/12/18 13:51:18;;;;;;;1.03;0.80;;;9.70;86.80;;;;;;4980944;28;20034;-70